sensor_id;sensor_type;location;lat;lon;timestamp;temperature;humidity
47514;DHT22;33951;51.988;5.910;2022-08-19T05:01:15;18.90;99.90
47514;DHT22;33951;51.988;5.910;2022-08-19T05:03:42;18.90;99.90
47514;DHT22;33951;51.988;5.910;2022-08-19T05:06:11;18.80;99.90
47514;DHT22;33951;51.988;5.910;2022-08-19T05:08:39;18.80;99.90
47514;DHT22;33951;51.988;5.910;2022-08-19T05:11:15;18.60;99.90
47514;DHT22;33951;51.988;5.910;2022-08-19T05:13:43;18.40;99.90
47514;DHT22;33951;51.988;5.910;2022-08-19T05:16:10;18.50;99.90
47514;DHT22;33951;51.988;5.910;2022-08-19T05:18:40;18.50;99.90
47514;DHT22;33951;51.988;5.910;2022-08-19T05:21:26;18.50;99.90
47514;DHT22;33951;51.988;5.910;2022-08-19T05:24:11;18.60;99.90
47514;DHT22;33951;51.988;5.910;2022-08-19T05:26:40;18.60;99.90
47514;DHT22;33951;51.988;5.910;2022-08-19T05:29:07;18.70;99.90
47514;DHT22;33951;51.988;5.910;2022-08-19T05:31:34;18.70;99.90
47514;DHT22;33951;51.988;5.910;2022-08-19T05:34:53;18.80;99.90
47514;DHT22;33951;51.988;5.910;2022-08-19T05:38:08;18.90;99.90
47514;DHT22;33951;51.988;5.910;2022-08-19T05:51:19;19.10;99.90
47514;DHT22;33951;51.988;5.910;2022-08-19T05:53:44;19.00;99.90
47514;DHT22;33951;51.988;5.910;2022-08-19T05:59:51;18.70;99.90
47514;DHT22;33951;51.988;5.910;2022-08-19T06:02:31;18.60;99.90
47514;DHT22;33951;51.988;5.910;2022-08-19T06:05:15;18.80;99.90
47514;DHT22;33951;51.988;5.910;2022-08-19T06:08:32;18.70;99.90
47514;DHT22;33951;51.988;5.910;2022-08-19T06:28:59;18.80;99.90
47514;DHT22;33951;51.988;5.910;2022-08-19T06:31:49;18.80;99.90
47514;DHT22;33951;51.988;5.910;2022-08-19T06:45:21;18.90;99.90
47514;DHT22;33951;51.988;5.910;2022-08-19T06:51:42;19.00;99.90
47514;DHT22;33951;51.988;5.910;2022-08-19T06:57:44;19.10;99.90
47514;DHT22;33951;51.988;5.910;2022-08-19T07:00:34;19.30;99.90
47514;DHT22;33951;51.988;5.910;2022-08-19T07:03:21;19.50;99.90
47514;DHT22;33951;51.988;5.910;2022-08-19T07:06:35;19.60;99.90
47514;DHT22;33951;51.988;5.910;2022-08-19T07:09:58;19.70;99.90
47514;DHT22;33951;51.988;5.910;2022-08-19T07:12:49;19.60;99.90
47514;DHT22;33951;51.988;5.910;2022-08-19T07:16:05;19.60;99.90
47514;DHT22;33951;51.988;5.910;2022-08-19T07:19:12;19.60;99.90
47514;DHT22;33951;51.988;5.910;2022-08-19T07:22:13;19.50;99.90
47514;DHT22;33951;51.988;5.910;2022-08-19T07:27:53;20.00;99.90
47514;DHT22;33951;51.988;5.910;2022-08-19T07:30:50;19.90;99.90
47514;DHT22;33951;51.988;5.910;2022-08-19T07:37:08;20.00;99.90
47514;DHT22;33951;51.988;5.910;2022-08-19T07:43:17;20.20;99.90
47514;DHT22;33951;51.988;5.910;2022-08-19T08:14:16;20.60;99.90
47514;DHT22;33951;51.988;5.910;2022-08-19T08:20:50;20.60;99.90
47514;DHT22;33951;51.988;5.910;2022-08-19T08:33:51;20.40;99.90
47514;DHT22;33951;51.988;5.910;2022-08-19T08:40:03;20.30;99.90
47514;DHT22;33951;51.988;5.910;2022-08-19T08:46:51;20.30;99.90
47514;DHT22;33951;51.988;5.910;2022-08-19T08:52:27;20.50;99.90
47514;DHT22;33951;51.988;5.910;2022-08-19T08:58:06;20.70;99.90
47514;DHT22;33951;51.988;5.910;2022-08-19T09:00:46;20.80;99.90
47514;DHT22;33951;51.988;5.910;2022-08-19T09:03:23;21.10;99.90
47514;DHT22;33951;51.988;5.910;2022-08-19T09:06:02;21.10;99.90
47514;DHT22;33951;51.988;5.910;2022-08-19T09:08:32;21.40;99.90
47514;DHT22;33951;51.988;5.910;2022-08-19T09:11:03;21.40;99.90
47514;DHT22;33951;51.988;5.910;2022-08-19T09:13:46;21.50;99.90
47514;DHT22;33951;51.988;5.910;2022-08-19T09:16:19;21.50;99.90
47514;DHT22;33951;51.988;5.910;2022-08-19T09:18:51;21.50;99.90
47514;DHT22;33951;51.988;5.910;2022-08-19T09:21:21;21.50;99.90
47514;DHT22;33951;51.988;5.910;2022-08-19T09:23:50;21.70;99.90
47514;DHT22;33951;51.988;5.910;2022-08-19T09:26:19;21.90;99.90
47514;DHT22;33951;51.988;5.910;2022-08-19T09:28:47;22.10;99.90
47514;DHT22;33951;51.988;5.910;2022-08-19T09:31:36;22.20;99.90
47514;DHT22;33951;51.988;5.910;2022-08-19T09:34:11;22.40;99.90
47514;DHT22;33951;51.988;5.910;2022-08-19T09:36:37;22.60;99.90
47514;DHT22;33951;51.988;5.910;2022-08-19T09:39:17;22.50;99.90
47514;DHT22;33951;51.988;5.910;2022-08-19T09:41:43;22.40;99.90
47514;DHT22;33951;51.988;5.910;2022-08-19T09:44:09;22.50;99.90
47514;DHT22;33951;51.988;5.910;2022-08-19T09:47:01;22.50;99.90
47514;DHT22;33951;51.988;5.910;2022-08-19T09:49:30;22.60;99.90
47514;DHT22;33951;51.988;5.910;2022-08-19T09:51:56;22.50;99.90
47514;DHT22;33951;51.988;5.910;2022-08-19T09:54:23;22.30;99.90
47514;DHT22;33951;51.988;5.910;2022-08-19T09:56:49;22.10;99.90
47514;DHT22;33951;51.988;5.910;2022-08-19T09:59:14;22.20;99.90
47514;DHT22;33951;51.988;5.910;2022-08-19T10:01:40;22.20;99.90
47514;DHT22;33951;51.988;5.910;2022-08-19T10:04:06;22.30;99.90
47514;DHT22;33951;51.988;5.910;2022-08-19T10:06:37;22.40;99.90
47514;DHT22;33951;51.988;5.910;2022-08-19T10:09:04;22.50;99.90
47514;DHT22;33951;51.988;5.910;2022-08-19T10:11:32;22.60;99.90
47514;DHT22;33951;51.988;5.910;2022-08-19T10:13:58;22.70;99.90
47514;DHT22;33951;51.988;5.910;2022-08-19T10:16:24;22.90;99.90
47514;DHT22;33951;51.988;5.910;2022-08-19T10:18:52;22.90;99.90
47514;DHT22;33951;51.988;5.910;2022-08-19T10:21:21;23.00;99.90
47514;DHT22;33951;51.988;5.910;2022-08-19T10:23:57;23.20;99.90
47514;DHT22;33951;51.988;5.910;2022-08-19T10:26:26;23.10;99.90
47514;DHT22;33951;51.988;5.910;2022-08-19T10:28:52;23.00;99.90
47514;DHT22;33951;51.988;5.910;2022-08-19T10:31:20;23.20;99.90
47514;DHT22;33951;51.988;5.910;2022-08-19T10:33:47;23.20;99.90
47514;DHT22;33951;51.988;5.910;2022-08-19T10:36:19;23.60;99.90
47514;DHT22;33951;51.988;5.910;2022-08-19T10:38:48;23.60;99.90
47514;DHT22;33951;51.988;5.910;2022-08-19T10:41:17;23.70;99.90
47514;DHT22;33951;51.988;5.910;2022-08-19T10:43:44;23.70;99.90
47514;DHT22;33951;51.988;5.910;2022-08-19T10:46:14;23.80;99.90
47514;DHT22;33951;51.988;5.910;2022-08-19T10:48:41;24.00;99.90
47514;DHT22;33951;51.988;5.910;2022-08-19T10:51:08;24.20;99.90
47514;DHT22;33951;51.988;5.910;2022-08-19T10:53:54;24.00;99.90
47514;DHT22;33951;51.988;5.910;2022-08-19T10:56:20;24.00;99.90
47514;DHT22;33951;51.988;5.910;2022-08-19T10:59:04;24.10;99.90
47514;DHT22;33951;51.988;5.910;2022-08-19T11:01:31;24.30;99.90
47514;DHT22;33951;51.988;5.910;2022-08-19T11:04:01;24.40;99.90
47514;DHT22;33951;51.988;5.910;2022-08-19T11:06:27;24.60;99.90
47514;DHT22;33951;51.988;5.910;2022-08-19T11:08:54;24.60;99.90
47514;DHT22;33951;51.988;5.910;2022-08-19T11:11:20;24.90;99.90
47514;DHT22;33951;51.988;5.910;2022-08-19T11:13:47;25.00;99.90
47514;DHT22;33951;51.988;5.910;2022-08-19T11:16:19;25.10;99.90
47514;DHT22;33951;51.988;5.910;2022-08-19T11:18:51;25.20;99.90
47514;DHT22;33951;51.988;5.910;2022-08-19T11:21:33;25.40;99.90
47514;DHT22;33951;51.988;5.910;2022-08-19T11:24:02;25.40;99.90
47514;DHT22;33951;51.988;5.910;2022-08-19T11:26:30;25.60;99.90
47514;DHT22;33951;51.988;5.910;2022-08-19T11:28:57;25.80;99.90
47514;DHT22;33951;51.988;5.910;2022-08-19T11:31:27;25.80;99.90
47514;DHT22;33951;51.988;5.910;2022-08-19T11:33:53;25.40;99.90
47514;DHT22;33951;51.988;5.910;2022-08-19T11:36:20;25.50;99.90
47514;DHT22;33951;51.988;5.910;2022-08-19T11:38:49;25.70;99.90
47514;DHT22;33951;51.988;5.910;2022-08-19T11:41:17;25.70;99.90
47514;DHT22;33951;51.988;5.910;2022-08-19T11:43:43;25.80;99.90
47514;DHT22;33951;51.988;5.910;2022-08-19T11:46:12;25.80;99.90
47514;DHT22;33951;51.988;5.910;2022-08-19T11:48:38;25.60;99.90
47514;DHT22;33951;51.988;5.910;2022-08-19T11:51:07;25.90;99.90
47514;DHT22;33951;51.988;5.910;2022-08-19T11:53:34;26.00;99.90
47514;DHT22;33951;51.988;5.910;2022-08-19T11:56:00;26.40;99.90
47514;DHT22;33951;51.988;5.910;2022-08-19T11:58:26;26.60;99.90
47514;DHT22;33951;51.988;5.910;2022-08-19T12:00:52;26.60;99.90
47514;DHT22;33951;51.988;5.910;2022-08-19T12:03:18;26.70;99.90
47514;DHT22;33951;51.988;5.910;2022-08-19T12:05:45;26.70;99.90
47514;DHT22;33951;51.988;5.910;2022-08-19T12:08:11;27.00;99.90
47514;DHT22;33951;51.988;5.910;2022-08-19T12:10:38;27.30;99.90
47514;DHT22;33951;51.988;5.910;2022-08-19T12:13:05;27.20;99.90
47514;DHT22;33951;51.988;5.910;2022-08-19T12:15:38;27.40;99.90
47514;DHT22;33951;51.988;5.910;2022-08-19T12:18:07;27.60;99.90
47514;DHT22;33951;51.988;5.910;2022-08-19T12:20:37;28.00;99.90
47514;DHT22;33951;51.988;5.910;2022-08-19T12:23:04;28.30;99.90
47514;DHT22;33951;51.988;5.910;2022-08-19T12:25:29;28.10;99.90
47514;DHT22;33951;51.988;5.910;2022-08-19T12:27:56;27.90;99.90
47514;DHT22;33951;51.988;5.910;2022-08-19T12:30:21;27.80;99.90
47514;DHT22;33951;51.988;5.910;2022-08-19T12:32:47;27.80;99.90
47514;DHT22;33951;51.988;5.910;2022-08-19T12:35:13;27.70;99.90
47514;DHT22;33951;51.988;5.910;2022-08-19T12:37:39;27.90;99.90
47514;DHT22;33951;51.988;5.910;2022-08-19T12:40:10;28.10;99.90
47514;DHT22;33951;51.988;5.910;2022-08-19T12:42:37;28.10;99.90
47514;DHT22;33951;51.988;5.910;2022-08-19T12:45:07;27.80;99.90
47514;DHT22;33951;51.988;5.910;2022-08-19T12:47:33;27.90;99.90
47514;DHT22;33951;51.988;5.910;2022-08-19T12:49:58;27.80;99.90
47514;DHT22;33951;51.988;5.910;2022-08-19T12:52:25;27.80;99.90
47514;DHT22;33951;51.988;5.910;2022-08-19T12:54:52;28.10;99.90
47514;DHT22;33951;51.988;5.910;2022-08-19T12:57:17;28.50;99.90
47514;DHT22;33951;51.988;5.910;2022-08-19T12:59:43;28.80;99.90
47514;DHT22;33951;51.988;5.910;2022-08-19T13:02:08;29.00;99.90
47514;DHT22;33951;51.988;5.910;2022-08-19T13:04:34;29.30;99.90
47514;DHT22;33951;51.988;5.910;2022-08-19T13:07:02;29.20;99.90
47514;DHT22;33951;51.988;5.910;2022-08-19T13:09:28;29.30;99.90
47514;DHT22;33951;51.988;5.910;2022-08-19T13:11:53;29.40;99.90
47514;DHT22;33951;51.988;5.910;2022-08-19T13:14:19;29.00;99.90
47514;DHT22;33951;51.988;5.910;2022-08-19T13:16:48;28.60;99.90
47514;DHT22;33951;51.988;5.910;2022-08-19T13:19:13;28.40;99.90
47514;DHT22;33951;51.988;5.910;2022-08-19T13:21:39;28.10;99.90
47514;DHT22;33951;51.988;5.910;2022-08-19T13:24:05;28.20;99.90
47514;DHT22;33951;51.988;5.910;2022-08-19T13:26:31;28.20;99.90
47514;DHT22;33951;51.988;5.910;2022-08-19T13:28:57;28.10;99.90
47514;DHT22;33951;51.988;5.910;2022-08-19T13:31:41;28.30;99.90
47514;DHT22;33951;51.988;5.910;2022-08-19T13:34:32;28.10;99.90
47514;DHT22;33951;51.988;5.910;2022-08-19T13:37:00;28.30;99.90
47514;DHT22;33951;51.988;5.910;2022-08-19T13:39:28;28.50;99.90
47514;DHT22;33951;51.988;5.910;2022-08-19T13:41:54;28.70;99.90
47514;DHT22;33951;51.988;5.910;2022-08-19T13:44:20;28.70;99.90
47514;DHT22;33951;51.988;5.910;2022-08-19T13:46:47;28.90;99.90
47514;DHT22;33951;51.988;5.910;2022-08-19T13:49:14;29.20;99.90
47514;DHT22;33951;51.988;5.910;2022-08-19T13:51:43;29.30;99.90
47514;DHT22;33951;51.988;5.910;2022-08-19T13:54:10;29.30;99.90
47514;DHT22;33951;51.988;5.910;2022-08-19T13:56:44;28.80;99.90
47514;DHT22;33951;51.988;5.910;2022-08-19T13:59:10;28.70;99.90
47514;DHT22;33951;51.988;5.910;2022-08-19T14:01:37;28.90;99.90
47514;DHT22;33951;51.988;5.910;2022-08-19T14:04:03;28.70;99.90
47514;DHT22;33951;51.988;5.910;2022-08-19T14:06:29;28.50;99.90
47514;DHT22;33951;51.988;5.910;2022-08-19T14:08:54;28.50;99.90
47514;DHT22;33951;51.988;5.910;2022-08-19T14:11:20;28.50;99.90
47514;DHT22;33951;51.988;5.910;2022-08-19T14:13:48;28.70;99.90
47514;DHT22;33951;51.988;5.910;2022-08-19T14:16:14;28.70;99.90
47514;DHT22;33951;51.988;5.910;2022-08-19T14:18:40;28.50;99.90
47514;DHT22;33951;51.988;5.910;2022-08-19T14:21:06;28.30;99.90
47514;DHT22;33951;51.988;5.910;2022-08-19T14:23:32;27.90;99.90
47514;DHT22;33951;51.988;5.910;2022-08-19T14:26:08;27.50;99.90
47514;DHT22;33951;51.988;5.910;2022-08-19T14:28:35;27.30;99.90
47514;DHT22;33951;51.988;5.910;2022-08-19T14:31:01;27.30;99.90
47514;DHT22;33951;51.988;5.910;2022-08-19T14:33:26;27.00;99.90
47514;DHT22;33951;51.988;5.910;2022-08-19T14:35:52;26.90;99.90
47514;DHT22;33951;51.988;5.910;2022-08-19T14:38:18;26.70;99.90
47514;DHT22;33951;51.988;5.910;2022-08-19T14:40:44;26.50;99.90
47514;DHT22;33951;51.988;5.910;2022-08-19T14:43:11;26.40;99.90
47514;DHT22;33951;51.988;5.910;2022-08-19T14:45:38;26.50;99.90
47514;DHT22;33951;51.988;5.910;2022-08-19T14:48:06;26.30;99.90
47514;DHT22;33951;51.988;5.910;2022-08-19T14:50:33;26.30;99.90
47514;DHT22;33951;51.988;5.910;2022-08-19T14:53:05;25.90;99.90
47514;DHT22;33951;51.988;5.910;2022-08-19T14:55:32;25.90;99.90
47514;DHT22;33951;51.988;5.910;2022-08-19T14:58:10;25.90;99.90
47514;DHT22;33951;51.988;5.910;2022-08-19T15:00:35;25.80;99.90
47514;DHT22;33951;51.988;5.910;2022-08-19T15:03:01;25.40;99.90
47514;DHT22;33951;51.988;5.910;2022-08-19T15:05:27;25.40;99.90
47514;DHT22;33951;51.988;5.910;2022-08-19T15:08:05;25.40;99.90
47514;DHT22;33951;51.988;5.910;2022-08-19T15:10:47;25.30;99.90
47514;DHT22;33951;51.988;5.910;2022-08-19T15:13:22;25.30;99.90
47514;DHT22;33951;51.988;5.910;2022-08-19T15:15:48;25.30;99.90
47514;DHT22;33951;51.988;5.910;2022-08-19T15:18:14;25.20;99.90
47514;DHT22;33951;51.988;5.910;2022-08-19T15:20:48;25.10;99.90
47514;DHT22;33951;51.988;5.910;2022-08-19T15:23:22;25.20;99.90
47514;DHT22;33951;51.988;5.910;2022-08-19T15:25:49;25.00;99.90
47514;DHT22;33951;51.988;5.910;2022-08-19T15:28:18;24.60;99.90
47514;DHT22;33951;51.988;5.910;2022-08-19T15:30:44;24.70;99.90
47514;DHT22;33951;51.988;5.910;2022-08-19T15:33:10;24.40;99.90
47514;DHT22;33951;51.988;5.910;2022-08-19T15:35:40;24.20;99.90
47514;DHT22;33951;51.988;5.910;2022-08-19T15:38:07;24.20;99.90
47514;DHT22;33951;51.988;5.910;2022-08-19T15:40:33;24.20;99.90
47514;DHT22;33951;51.988;5.910;2022-08-19T15:42:59;24.20;99.90
47514;DHT22;33951;51.988;5.910;2022-08-19T15:45:25;24.20;99.90
47514;DHT22;33951;51.988;5.910;2022-08-19T15:48:00;24.10;99.90
47514;DHT22;33951;51.988;5.910;2022-08-19T15:50:27;24.00;99.90
47514;DHT22;33951;51.988;5.910;2022-08-19T15:52:56;24.20;99.90
47514;DHT22;33951;51.988;5.910;2022-08-19T15:55:30;24.50;99.90
47514;DHT22;33951;51.988;5.910;2022-08-19T15:57:58;24.50;99.90
47514;DHT22;33951;51.988;5.910;2022-08-19T16:00:42;24.20;99.90
47514;DHT22;33951;51.988;5.910;2022-08-19T16:03:29;24.10;99.90
47514;DHT22;33951;51.988;5.910;2022-08-19T16:06:13;24.10;99.90
47514;DHT22;33951;51.988;5.910;2022-08-19T16:08:58;23.80;99.90
47514;DHT22;33951;51.988;5.910;2022-08-19T16:11:39;23.90;99.90
47514;DHT22;33951;51.988;5.910;2022-08-19T16:14:06;23.70;99.90
47514;DHT22;33951;51.988;5.910;2022-08-19T16:16:35;23.60;99.90
47514;DHT22;33951;51.988;5.910;2022-08-19T16:19:04;23.40;99.90
47514;DHT22;33951;51.988;5.910;2022-08-19T16:21:32;23.40;99.90
47514;DHT22;33951;51.988;5.910;2022-08-19T16:24:00;23.50;99.90
47514;DHT22;33951;51.988;5.910;2022-08-19T16:26:27;23.70;99.90
47514;DHT22;33951;51.988;5.910;2022-08-19T16:28:59;23.80;99.90
47514;DHT22;33951;51.988;5.910;2022-08-19T16:31:25;23.80;99.90
47514;DHT22;33951;51.988;5.910;2022-08-19T16:33:52;23.90;99.90
47514;DHT22;33951;51.988;5.910;2022-08-19T16:36:17;23.70;99.90
47514;DHT22;33951;51.988;5.910;2022-08-19T16:38:43;23.70;99.90
47514;DHT22;33951;51.988;5.910;2022-08-19T16:41:12;23.80;99.90
47514;DHT22;33951;51.988;5.910;2022-08-19T16:43:42;23.90;99.90
47514;DHT22;33951;51.988;5.910;2022-08-19T16:46:08;23.90;99.90
47514;DHT22;33951;51.988;5.910;2022-08-19T16:48:35;24.20;99.90
47514;DHT22;33951;51.988;5.910;2022-08-19T16:51:10;24.20;99.90
47514;DHT22;33951;51.988;5.910;2022-08-19T16:53:37;24.10;99.90
47514;DHT22;33951;51.988;5.910;2022-08-19T16:56:04;24.10;99.90
47514;DHT22;33951;51.988;5.910;2022-08-19T16:58:30;24.10;99.90
47514;DHT22;33951;51.988;5.910;2022-08-19T17:01:03;24.10;99.90
47514;DHT22;33951;51.988;5.910;2022-08-19T17:03:31;24.30;99.90
47514;DHT22;33951;51.988;5.910;2022-08-19T17:05:58;24.30;99.90
47514;DHT22;33951;51.988;5.910;2022-08-19T17:08:28;24.20;99.90
47514;DHT22;33951;51.988;5.910;2022-08-19T17:10:55;24.30;99.90
47514;DHT22;33951;51.988;5.910;2022-08-19T17:13:23;24.30;99.90
47514;DHT22;33951;51.988;5.910;2022-08-19T17:15:55;24.00;99.90
47514;DHT22;33951;51.988;5.910;2022-08-19T17:18:24;23.90;99.90
47514;DHT22;33951;51.988;5.910;2022-08-19T17:20:51;24.00;99.90
47514;DHT22;33951;51.988;5.910;2022-08-19T17:23:18;24.10;99.90
47514;DHT22;33951;51.988;5.910;2022-08-19T17:25:47;24.00;99.90
47514;DHT22;33951;51.988;5.910;2022-08-19T17:28:20;23.90;99.90
47514;DHT22;33951;51.988;5.910;2022-08-19T17:30:54;24.00;99.90
47514;DHT22;33951;51.988;5.910;2022-08-19T17:33:21;24.00;99.90
47514;DHT22;33951;51.988;5.910;2022-08-19T17:35:48;23.80;99.90
47514;DHT22;33951;51.988;5.910;2022-08-19T17:38:18;23.70;99.90
47514;DHT22;33951;51.988;5.910;2022-08-19T17:40:46;23.70;99.90
47514;DHT22;33951;51.988;5.910;2022-08-19T17:43:13;23.70;99.90
47514;DHT22;33951;51.988;5.910;2022-08-19T17:45:40;23.80;99.90
47514;DHT22;33951;51.988;5.910;2022-08-19T17:48:07;23.80;99.90
47514;DHT22;33951;51.988;5.910;2022-08-19T17:50:34;23.60;99.90
47514;DHT22;33951;51.988;5.910;2022-08-19T17:53:00;23.60;99.90
47514;DHT22;33951;51.988;5.910;2022-08-19T17:55:26;23.70;99.90
47514;DHT22;33951;51.988;5.910;2022-08-19T17:57:52;23.80;99.90
47514;DHT22;33951;51.988;5.910;2022-08-19T18:00:19;23.70;99.90
47514;DHT22;33951;51.988;5.910;2022-08-19T18:02:48;23.70;99.90
47514;DHT22;33951;51.988;5.910;2022-08-19T18:05:18;23.70;99.90
47514;DHT22;33951;51.988;5.910;2022-08-19T18:07:44;23.50;99.90
47514;DHT22;33951;51.988;5.910;2022-08-19T18:10:11;23.40;99.90
47514;DHT22;33951;51.988;5.910;2022-08-19T18:12:37;23.50;99.90
47514;DHT22;33951;51.988;5.910;2022-08-19T18:15:07;23.60;99.90
47514;DHT22;33951;51.988;5.910;2022-08-19T18:17:33;23.70;99.90
47514;DHT22;33951;51.988;5.910;2022-08-19T18:20:03;23.70;99.90
47514;DHT22;33951;51.988;5.910;2022-08-19T18:22:32;23.70;99.90
47514;DHT22;33951;51.988;5.910;2022-08-19T18:25:02;23.80;99.90
47514;DHT22;33951;51.988;5.910;2022-08-19T18:27:29;23.50;99.90
47514;DHT22;33951;51.988;5.910;2022-08-19T18:29:55;23.40;99.90
47514;DHT22;33951;51.988;5.910;2022-08-19T18:32:24;23.10;99.90
47514;DHT22;33951;51.988;5.910;2022-08-19T18:34:51;23.10;99.90
47514;DHT22;33951;51.988;5.910;2022-08-19T18:37:18;23.10;99.90
47514;DHT22;33951;51.988;5.910;2022-08-19T18:39:52;23.10;99.90
47514;DHT22;33951;51.988;5.910;2022-08-19T18:42:41;23.30;99.90
47514;DHT22;33951;51.988;5.910;2022-08-19T18:45:26;23.30;99.90
47514;DHT22;33951;51.988;5.910;2022-08-19T18:48:10;23.30;99.90
47514;DHT22;33951;51.988;5.910;2022-08-19T18:50:56;23.20;99.90
47514;DHT22;33951;51.988;5.910;2022-08-19T18:53:23;23.30;99.90
47514;DHT22;33951;51.988;5.910;2022-08-19T18:55:49;23.10;99.90
47514;DHT22;33951;51.988;5.910;2022-08-19T18:58:18;23.20;99.90
47514;DHT22;33951;51.988;5.910;2022-08-19T19:00:43;22.90;99.90
47514;DHT22;33951;51.988;5.910;2022-08-19T19:03:09;22.70;99.90
47514;DHT22;33951;51.988;5.910;2022-08-19T19:05:36;22.60;99.90
47514;DHT22;33951;51.988;5.910;2022-08-19T19:08:01;22.70;99.90
47514;DHT22;33951;51.988;5.910;2022-08-19T19:10:27;22.70;99.90
47514;DHT22;33951;51.988;5.910;2022-08-19T19:12:52;22.60;99.90
47514;DHT22;33951;51.988;5.910;2022-08-19T19:15:21;22.50;99.90
47514;DHT22;33951;51.988;5.910;2022-08-19T19:17:47;22.40;99.90
47514;DHT22;33951;51.988;5.910;2022-08-19T19:20:12;22.50;99.90
47514;DHT22;33951;51.988;5.910;2022-08-19T19:22:38;22.60;99.90
47514;DHT22;33951;51.988;5.910;2022-08-19T19:25:04;22.40;99.90
47514;DHT22;33951;51.988;5.910;2022-08-19T19:27:30;22.20;99.90
47514;DHT22;33951;51.988;5.910;2022-08-19T19:29:55;22.20;99.90
47514;DHT22;33951;51.988;5.910;2022-08-19T19:32:27;22.20;99.90
47514;DHT22;33951;51.988;5.910;2022-08-19T19:34:56;22.20;99.90
47514;DHT22;33951;51.988;5.910;2022-08-19T19:37:23;22.10;99.90
47514;DHT22;33951;51.988;5.910;2022-08-19T19:39:49;22.00;99.90
47514;DHT22;33951;51.988;5.910;2022-08-19T19:42:18;22.00;99.90
47514;DHT22;33951;51.988;5.910;2022-08-19T19:44:45;21.90;99.90
47514;DHT22;33951;51.988;5.910;2022-08-19T19:47:13;21.70;99.90
47514;DHT22;33951;51.988;5.910;2022-08-19T19:49:40;21.60;99.90
47514;DHT22;33951;51.988;5.910;2022-08-19T19:52:06;21.60;99.90
47514;DHT22;33951;51.988;5.910;2022-08-19T19:54:34;21.60;99.90
47514;DHT22;33951;51.988;5.910;2022-08-19T19:57:00;21.50;99.90
47514;DHT22;33951;51.988;5.910;2022-08-19T19:59:26;21.50;99.90
47514;DHT22;33951;51.988;5.910;2022-08-19T20:01:51;21.50;99.90
47514;DHT22;33951;51.988;5.910;2022-08-19T20:04:17;21.60;99.90
47514;DHT22;33951;51.988;5.910;2022-08-19T20:06:45;21.60;99.90
47514;DHT22;33951;51.988;5.910;2022-08-19T20:09:11;21.60;99.90
47514;DHT22;33951;51.988;5.910;2022-08-19T20:11:52;21.60;99.90
47514;DHT22;33951;51.988;5.910;2022-08-19T20:14:27;21.70;99.90
47514;DHT22;33951;51.988;5.910;2022-08-19T20:16:55;21.60;99.90
47514;DHT22;33951;51.988;5.910;2022-08-19T20:19:23;21.60;99.90
47514;DHT22;33951;51.988;5.910;2022-08-19T20:21:50;21.80;99.90
47514;DHT22;33951;51.988;5.910;2022-08-19T20:24:22;21.60;99.90
47514;DHT22;33951;51.988;5.910;2022-08-19T20:26:49;21.50;99.90
47514;DHT22;33951;51.988;5.910;2022-08-19T20:29:18;21.60;99.90
47514;DHT22;33951;51.988;5.910;2022-08-19T20:31:45;21.60;99.90
47514;DHT22;33951;51.988;5.910;2022-08-19T20:34:12;21.60;99.90
47514;DHT22;33951;51.988;5.910;2022-08-19T20:36:39;21.60;99.90
47514;DHT22;33951;51.988;5.910;2022-08-19T20:39:06;21.80;99.90
47514;DHT22;33951;51.988;5.910;2022-08-19T20:41:32;21.80;99.90
47514;DHT22;33951;51.988;5.910;2022-08-19T20:43:59;21.70;99.90
47514;DHT22;33951;51.988;5.910;2022-08-19T20:46:27;21.80;99.90
47514;DHT22;33951;51.988;5.910;2022-08-19T20:48:54;21.90;99.90
47514;DHT22;33951;51.988;5.910;2022-08-19T20:51:20;21.80;99.90
47514;DHT22;33951;51.988;5.910;2022-08-19T20:53:46;21.70;99.90
47514;DHT22;33951;51.988;5.910;2022-08-19T20:56:12;21.50;99.90
47514;DHT22;33951;51.988;5.910;2022-08-19T20:58:37;21.50;99.90
47514;DHT22;33951;51.988;5.910;2022-08-19T21:01:05;21.40;99.90
47514;DHT22;33951;51.988;5.910;2022-08-19T21:03:34;21.40;99.90
47514;DHT22;33951;51.988;5.910;2022-08-19T21:06:01;21.40;99.90
47514;DHT22;33951;51.988;5.910;2022-08-19T21:08:27;21.40;99.90
47514;DHT22;33951;51.988;5.910;2022-08-19T21:10:54;21.30;99.90
47514;DHT22;33951;51.988;5.910;2022-08-19T21:13:20;21.10;99.90
47514;DHT22;33951;51.988;5.910;2022-08-19T21:15:47;21.10;99.90
47514;DHT22;33951;51.988;5.910;2022-08-19T21:18:14;20.90;99.90
47514;DHT22;33951;51.988;5.910;2022-08-19T21:20:41;21.00;99.90
47514;DHT22;33951;51.988;5.910;2022-08-19T21:23:10;21.10;99.90
47514;DHT22;33951;51.988;5.910;2022-08-19T21:25:36;21.10;99.90
47514;DHT22;33951;51.988;5.910;2022-08-19T21:28:03;21.00;99.90
47514;DHT22;33951;51.988;5.910;2022-08-19T21:30:29;20.80;99.90
47514;DHT22;33951;51.988;5.910;2022-08-19T21:32:55;20.80;99.90
47514;DHT22;33951;51.988;5.910;2022-08-19T21:35:22;20.80;99.90
47514;DHT22;33951;51.988;5.910;2022-08-19T21:37:51;20.80;99.90
47514;DHT22;33951;51.988;5.910;2022-08-19T21:40:19;21.00;99.90
47514;DHT22;33951;51.988;5.910;2022-08-19T21:42:45;21.00;99.90
47514;DHT22;33951;51.988;5.910;2022-08-19T21:45:12;21.00;99.90
47514;DHT22;33951;51.988;5.910;2022-08-19T21:47:37;21.10;99.90
47514;DHT22;33951;51.988;5.910;2022-08-19T21:50:04;21.20;99.90
47514;DHT22;33951;51.988;5.910;2022-08-19T21:52:30;21.30;99.90
47514;DHT22;33951;51.988;5.910;2022-08-19T21:54:56;21.20;99.90
47514;DHT22;33951;51.988;5.910;2022-08-19T21:57:22;21.20;99.90
47514;DHT22;33951;51.988;5.910;2022-08-19T21:59:51;21.20;99.90
47514;DHT22;33951;51.988;5.910;2022-08-19T22:02:17;21.10;99.90
47514;DHT22;33951;51.988;5.910;2022-08-19T22:04:43;20.90;99.90
47514;DHT22;33951;51.988;5.910;2022-08-19T22:07:10;20.80;99.90
47514;DHT22;33951;51.988;5.910;2022-08-19T22:09:40;21.00;99.90
47514;DHT22;33951;51.988;5.910;2022-08-19T22:12:08;20.90;99.90
47514;DHT22;33951;51.988;5.910;2022-08-19T22:14:36;20.90;99.90
47514;DHT22;33951;51.988;5.910;2022-08-19T22:17:02;20.80;99.90
47514;DHT22;33951;51.988;5.910;2022-08-19T22:19:28;20.80;99.90
47514;DHT22;33951;51.988;5.910;2022-08-19T22:21:55;20.80;99.90
47514;DHT22;33951;51.988;5.910;2022-08-19T22:24:21;20.80;99.90
47514;DHT22;33951;51.988;5.910;2022-08-19T22:26:46;20.80;99.90
47514;DHT22;33951;51.988;5.910;2022-08-19T22:29:12;20.90;99.90
47514;DHT22;33951;51.988;5.910;2022-08-19T22:31:37;21.00;99.90
47514;DHT22;33951;51.988;5.910;2022-08-19T22:34:04;21.10;99.90
47514;DHT22;33951;51.988;5.910;2022-08-19T22:36:30;21.10;99.90
47514;DHT22;33951;51.988;5.910;2022-08-19T22:38:56;21.10;99.90
47514;DHT22;33951;51.988;5.910;2022-08-19T22:41:22;21.10;99.90
47514;DHT22;33951;51.988;5.910;2022-08-19T22:43:48;21.20;99.90
47514;DHT22;33951;51.988;5.910;2022-08-19T22:46:14;21.30;99.90